createdAt,value
2022-11-14T00:00:04.994Z,97.01
2022-11-14T00:01:05.000Z,97.01
2022-11-14T00:02:04.962Z,97.26
2022-11-14T00:03:05.021Z,95.71
2022-11-14T00:04:04.947Z,95.14
2022-11-14T00:05:04.941Z,94.56
2022-11-14T00:06:04.952Z,94.62
2022-11-14T00:07:04.989Z,94.89
2022-11-14T00:08:04.896Z,95.09
2022-11-14T00:09:04.893Z,95.07
2022-11-14T00:10:04.876Z,94.45
2022-11-14T00:11:04.877Z,94.41
2022-11-14T00:12:04.875Z,95.75
2022-11-14T00:13:04.833Z,94.41
2022-11-14T00:14:04.833Z,95.86
2022-11-14T00:15:04.823Z,95.54
2022-11-14T00:16:04.818Z,95.24
2022-11-14T00:17:04.817Z,95.86
2022-11-14T00:18:04.812Z,95.44
2022-11-14T00:19:04.774Z,95.24
2022-11-14T00:20:04.764Z,96.27
2022-11-14T00:21:04.756Z,96.79
2022-11-14T00:22:04.742Z,96.69
2022-11-14T00:23:04.733Z,96.69
2022-11-14T00:24:04.759Z,96.48
2022-11-14T00:25:04.704Z,96.94
2022-11-14T00:26:04.706Z,95.70
2022-11-14T00:27:04.684Z,96.37
2022-11-14T00:28:04.677Z,97.00
2022-11-14T00:29:04.716Z,96.27
2022-11-14T00:30:04.713Z,96.15
2022-11-14T00:31:04.659Z,95.01
2022-11-14T00:32:04.626Z,95.07
2022-11-14T00:33:04.623Z,95.96
2022-11-14T00:34:04.606Z,96.17
2022-11-14T00:35:04.598Z,97.10
2022-11-14T00:36:04.643Z,96.62
2022-11-14T00:37:04.575Z,96.62
2022-11-14T00:38:04.563Z,97.14
2022-11-14T00:39:04.543Z,97.35
2022-11-14T00:40:04.564Z,96.05
2022-11-14T00:41:04.560Z,95.84
2022-11-14T00:42:04.514Z,96.01
2022-11-14T00:43:04.526Z,96.05
2022-11-14T00:44:04.501Z,95.59
2022-11-14T00:45:04.493Z,95.95
2022-11-14T00:46:04.474Z,96.15
2022-11-14T00:47:04.474Z,94.85
2022-11-14T00:48:04.447Z,95.12
2022-11-14T00:49:04.436Z,94.91
2022-11-14T00:50:04.414Z,95.84
2022-11-14T00:51:04.415Z,95.74
2022-11-14T00:52:04.402Z,95.16
2022-11-14T00:53:04.437Z,95.12
2022-11-14T00:54:04.388Z,95.80
2022-11-14T00:55:04.366Z,96.11
2022-11-14T00:56:04.355Z,97.25
2022-11-14T00:57:04.337Z,96.21
2022-11-14T00:58:04.404Z,96.52
2022-11-14T00:59:04.344Z,96.83
2022-11-14T01:00:04.315Z,96.42
2022-11-14T01:01:04.533Z,97.10
2022-11-14T01:02:04.294Z,96.94
2022-11-14T01:03:04.267Z,96.31
2022-11-14T01:04:04.272Z,95.95
2022-11-14T01:05:04.277Z,95.95
2022-11-14T01:06:04.261Z,96.01
2022-11-14T01:07:04.229Z,95.70
2022-11-14T01:08:04.217Z,96.73
2022-11-14T01:09:04.272Z,95.64
2022-11-14T01:10:04.225Z,95.74
2022-11-14T01:11:04.206Z,95.80
2022-11-14T01:12:04.169Z,96.17
2022-11-14T01:13:04.177Z,96.94
2022-11-14T01:14:04.163Z,96.31
2022-11-14T01:15:04.140Z,96.62
2022-11-14T01:16:04.157Z,96.01
2022-11-14T01:17:04.137Z,95.80
2022-11-14T01:18:04.105Z,95.59
2022-11-14T01:19:04.087Z,95.59
2022-11-14T01:20:04.077Z,95.59
2022-11-14T01:21:04.087Z,95.80
2022-11-14T01:22:06.468Z,95.70
2022-11-14T01:23:04.048Z,95.80
2022-11-14T01:24:04.037Z,95.12
2022-11-14T01:25:04.035Z,95.53
2022-11-14T01:26:04.010Z,95.43
2022-11-14T01:27:03.998Z,95.01
2022-11-14T01:28:04.025Z,94.76
2022-11-14T01:29:03.984Z,95.70
2022-11-14T01:30:03.959Z,96.42
2022-11-14T01:31:03.947Z,97.35
2022-11-14T01:32:03.938Z,97.45
2022-11-14T01:33:03.935Z,96.83
2022-11-14T01:34:03.950Z,96.62
2022-11-14T01:35:03.907Z,95.95
2022-11-14T01:36:03.890Z,96.01
2022-11-14T01:37:03.879Z,96.83
2022-11-14T01:38:03.885Z,97.14
2022-11-14T01:39:03.859Z,96.57
2022-11-14T01:40:03.879Z,95.95
2022-11-14T01:41:03.851Z,96.21
2022-11-14T01:42:03.818Z,97.14
2022-11-14T01:43:03.810Z,97.93
2022-11-14T01:44:03.810Z,97.77
2022-11-14T01:45:03.788Z,97.25
2022-11-14T01:46:03.808Z,97.25
2022-11-14T01:47:03.779Z,97.25
2022-11-14T01:48:03.759Z,96.26
2022-11-14T01:49:03.739Z,96.78
2022-11-14T01:50:03.745Z,96.26
2022-11-14T01:51:03.754Z,96.88
2022-11-14T01:52:03.720Z,96.57
2022-11-14T01:53:03.699Z,96.36
2022-11-14T01:54:03.701Z,96.88
2022-11-14T01:55:03.680Z,96.67
2022-11-14T01:56:03.671Z,96.78
2022-11-14T01:57:03.690Z,97.24
2022-11-14T01:58:03.639Z,96.05
2022-11-14T01:59:03.632Z,96.51
2022-11-14T02:00:03.621Z,96.09
2022-11-14T02:01:03.654Z,96.26
2022-11-14T02:02:03.676Z,96.67
2022-11-14T02:03:03.590Z,97.44
2022-11-14T02:04:05.430Z,96.20
2022-11-14T02:05:03.570Z,95.99
2022-11-14T02:06:03.544Z,95.47
2022-11-14T02:07:03.636Z,96.30
2022-11-14T02:08:03.573Z,97.03
2022-11-14T02:09:03.536Z,96.61
2022-11-14T02:10:03.502Z,96.82
2022-11-14T02:11:03.495Z,96.51
2022-11-14T02:12:03.482Z,96.61
2022-11-14T02:13:03.527Z,96.20
2022-11-14T02:14:03.653Z,96.47
2022-11-14T02:15:03.473Z,97.19
2022-11-14T02:16:03.517Z,97.39
2022-11-14T02:17:28.027Z,97.75
2022-11-14T02:18:04.413Z,97.44
2022-11-14T02:19:03.402Z,98.07
2022-11-14T02:20:05.323Z,96.92
2022-11-14T02:21:03.379Z,96.41
2022-11-14T02:22:03.418Z,97.13
2022-11-14T02:23:03.372Z,97.29
2022-11-14T02:24:03.341Z,97.50
2022-11-14T02:25:03.340Z,97.71
2022-11-14T02:26:03.346Z,97.96
2022-11-14T02:27:03.319Z,97.86
2022-11-14T02:28:03.301Z,97.13
2022-11-14T02:29:03.312Z,97.17
2022-11-14T02:30:03.301Z,96.76
2022-11-14T02:31:03.340Z,95.72
2022-11-14T02:32:08.087Z,95.51
2022-11-14T02:33:11.923Z,96.14
2022-11-14T02:34:04.242Z,96.45
2022-11-14T02:35:03.254Z,96.66
2022-11-14T02:36:03.204Z,95.04
2022-11-14T02:37:03.252Z,95.20
2022-11-14T02:38:03.181Z,95.83
2022-11-14T02:39:03.183Z,96.03
2022-11-14T02:40:03.165Z,95.72
2022-11-14T02:41:03.160Z,95.93
2022-11-14T02:42:03.140Z,95.31
2022-11-14T02:43:03.190Z,96.03
2022-11-14T02:44:03.122Z,95.89
2022-11-14T02:45:03.115Z,95.72
2022-11-14T02:46:05.559Z,95.00
2022-11-14T02:47:03.096Z,96.09
2022-11-14T02:48:03.063Z,96.36
2022-11-14T02:49:03.074Z,98.02
2022-11-14T02:50:03.076Z,96.03
2022-11-14T02:51:03.044Z,96.24
2022-11-14T02:52:03.038Z,95.47
2022-11-14T02:53:03.081Z,96.41
2022-11-14T02:54:03.047Z,95.68
2022-11-14T02:55:03.024Z,96.20
2022-11-14T02:56:02.977Z,96.47
2022-11-14T02:57:02.973Z,97.60
2022-11-14T02:58:02.965Z,98.64
2022-11-14T02:59:02.954Z,97.96
2022-11-14T03:00:02.957Z,97.49
2022-11-14T03:01:19.802Z,96.45
2022-11-14T03:02:03.959Z,96.03
2022-11-14T03:03:02.908Z,96.82
2022-11-14T03:04:02.884Z,97.13
2022-11-14T03:05:02.873Z,97.49
2022-11-14T03:06:02.894Z,97.13
2022-11-14T03:07:02.884Z,98.07
2022-11-14T03:08:02.896Z,97.65
2022-11-14T03:09:02.835Z,97.55
2022-11-14T03:10:02.836Z,97.07
2022-11-14T03:11:02.837Z,96.76
2022-11-14T03:12:02.875Z,97.24
2022-11-14T03:13:02.813Z,97.13
2022-11-14T03:14:02.776Z,97.38
2022-11-14T03:15:02.766Z,96.55
2022-11-14T03:16:02.770Z,96.76
2022-11-14T03:17:02.737Z,96.76
2022-11-14T03:18:02.759Z,96.66
2022-11-14T03:19:02.725Z,97.07
2022-11-14T03:20:02.724Z,96.76
2022-11-14T03:21:02.719Z,97.86
2022-11-14T03:22:02.686Z,97.96
2022-11-14T03:23:02.703Z,97.69
2022-11-14T03:24:02.658Z,98.11
2022-11-14T03:25:02.691Z,97.12
2022-11-14T03:26:02.635Z,96.81
2022-11-14T03:27:02.648Z,96.81
2022-11-14T03:28:02.647Z,95.92
2022-11-14T03:29:02.656Z,95.81
2022-11-14T03:30:02.608Z,95.98
2022-11-14T03:31:02.587Z,96.24
2022-11-14T03:32:02.574Z,97.07
2022-11-14T03:33:02.574Z,97.38
2022-11-14T03:34:02.549Z,97.53
2022-11-14T03:35:02.603Z,97.07
2022-11-14T03:36:02.526Z,97.59
2022-11-14T03:37:02.530Z,97.49
2022-11-14T03:38:02.508Z,97.69
2022-11-14T03:39:02.489Z,98.00
2022-11-14T03:40:02.480Z,98.27
2022-11-14T03:41:02.512Z,98.58
2022-11-14T03:42:02.454Z,98.79
2022-11-14T03:43:02.439Z,97.80
2022-11-14T03:44:02.454Z,98.32
2022-11-14T03:45:02.418Z,98.00
2022-11-14T03:46:02.419Z,98.11
2022-11-14T03:47:02.467Z,98.52
2022-11-14T03:48:02.388Z,98.21
2022-11-14T03:49:02.377Z,97.80
2022-11-14T03:50:02.369Z,98.52
2022-11-14T03:51:02.374Z,98.83
2022-11-14T03:52:02.379Z,98.11
2022-11-14T03:53:02.382Z,97.64
2022-11-14T03:54:02.321Z,97.07
2022-11-14T03:55:02.312Z,98.11
2022-11-14T03:56:02.297Z,98.21
2022-11-14T03:57:02.291Z,98.42
2022-11-14T03:58:02.317Z,98.21
2022-11-14T03:59:02.287Z,99.15
2022-11-14T04:00:02.259Z,98.63
2022-11-14T04:01:02.327Z,98.32
2022-11-14T04:02:02.246Z,99.15
2022-11-14T04:03:02.210Z,99.35
2022-11-14T04:04:02.202Z,98.94
2022-11-14T04:05:02.221Z,98.88
2022-11-14T04:06:02.187Z,98.57
2022-11-14T04:07:02.265Z,98.78
2022-11-14T04:08:02.155Z,98.47
2022-11-14T04:09:02.146Z,97.85
2022-11-14T04:10:02.128Z,98.26
2022-11-14T04:11:02.141Z,98.36
2022-11-14T04:12:02.115Z,98.36
2022-11-14T04:13:02.106Z,98.05
2022-11-14T04:14:02.110Z,98.88
2022-11-14T04:15:02.080Z,98.68
2022-11-14T04:16:02.090Z,99.09
2022-11-14T04:17:02.067Z,99.19
2022-11-14T04:18:02.068Z,99.19
2022-11-14T04:19:02.039Z,99.61
2022-11-14T04:20:02.021Z,99.51
2022-11-14T04:21:02.021Z,99.61
2022-11-14T04:22:02.030Z,99.34
2022-11-14T04:23:01.990Z,98.93
2022-11-14T04:24:03.903Z,98.72
2022-11-14T04:25:02.960Z,98.20
2022-11-14T04:26:01.950Z,98.30
2022-11-14T04:27:01.971Z,97.62
2022-11-14T04:28:01.930Z,97.68
2022-11-14T04:29:01.934Z,97.89
2022-11-14T04:30:01.900Z,97.58
2022-11-14T04:31:01.881Z,97.78
2022-11-14T04:32:01.881Z,98.05
2022-11-14T04:33:01.896Z,98.78
2022-11-14T04:34:01.867Z,98.88
2022-11-14T04:35:01.947Z,99.30
2022-11-14T04:36:01.831Z,99.99
2022-11-14T04:37:01.830Z,99.03
2022-11-14T04:38:01.841Z,99.13
2022-11-14T04:39:01.841Z,98.14
2022-11-14T04:40:01.815Z,98.35
2022-11-14T04:41:01.792Z,97.93
2022-11-14T04:42:01.766Z,97.93
2022-11-14T04:43:01.752Z,98.03
2022-11-14T04:44:01.786Z,98.14
2022-11-14T04:45:01.789Z,98.08
2022-11-14T04:46:01.733Z,98.29
2022-11-14T04:47:01.711Z,96.94
2022-11-14T04:48:01.702Z,96.62
2022-11-14T04:49:01.743Z,97.10
2022-11-14T04:50:01.693Z,97.62
2022-11-14T04:51:01.680Z,97.83
2022-11-14T04:52:01.696Z,97.99
2022-11-14T04:53:01.643Z,98.30
2022-11-14T04:54:01.633Z,98.51
2022-11-14T04:55:01.641Z,98.72
2022-11-14T04:56:01.603Z,98.41
2022-11-14T04:57:01.596Z,99.13
2022-11-14T04:58:01.592Z,98.14
2022-11-14T04:59:01.584Z,98.30
2022-11-14T05:00:01.570Z,98.10
2022-11-14T05:01:01.613Z,98.51
2022-11-14T05:02:01.562Z,98.82
2022-11-14T05:03:01.558Z,98.82
2022-11-14T05:04:01.514Z,99.24
2022-11-14T05:05:01.503Z,99.34
2022-11-14T05:06:01.500Z,99.34
2022-11-14T05:07:01.571Z,99.44
2022-11-14T05:08:01.483Z,99.28
2022-11-14T05:09:01.518Z,99.18
2022-11-14T05:10:01.444Z,99.28
2022-11-14T05:11:01.450Z,99.07
2022-11-14T05:12:01.425Z,99.38
2022-11-14T05:13:01.445Z,99.18
2022-11-14T05:14:01.403Z,99.28
2022-11-14T05:15:01.409Z,99.59
2022-11-14T05:16:01.373Z,99.59
2022-11-14T05:17:01.402Z,99.80
2022-11-14T05:18:01.353Z,99.59
2022-11-14T05:19:01.372Z,99.38
2022-11-14T05:20:01.331Z,99.28
2022-11-14T05:21:01.332Z,99.59
2022-11-14T05:22:01.314Z,99.49
2022-11-14T05:23:01.305Z,99.07
2022-11-14T05:24:01.316Z,98.97
2022-11-14T05:25:01.277Z,99.38
2022-11-14T05:26:01.258Z,99.91
2022-11-14T05:27:01.275Z,99.22
2022-11-14T05:28:01.248Z,98.97
2022-11-14T05:29:01.236Z,99.49
2022-11-14T05:30:01.241Z,99.70
2022-11-14T05:31:01.214Z,99.49
2022-11-14T05:32:01.224Z,99.70
2022-11-14T05:33:01.192Z,99.99
2022-11-14T05:34:01.177Z,99.22
2022-11-14T05:35:01.207Z,99.12
2022-11-14T05:36:01.162Z,99.99
2022-11-14T05:37:01.137Z,99.22
2022-11-14T05:38:01.151Z,98.91
2022-11-14T05:39:01.118Z,98.50
2022-11-14T05:40:01.118Z,99.12
2022-11-14T05:41:01.138Z,98.71
2022-11-14T05:42:01.076Z,99.07
2022-11-14T05:43:01.074Z,99.49
2022-11-14T05:44:01.062Z,99.28
2022-11-14T05:45:01.047Z,99.49
2022-11-14T05:46:01.083Z,99.80
2022-11-14T05:47:01.036Z,99.99
2022-11-14T05:48:01.015Z,99.33
2022-11-14T05:49:01.006Z,99.02
2022-11-14T05:50:00.988Z,99.28
2022-11-14T05:51:00.997Z,99.28
2022-11-14T05:52:00.999Z,98.86
2022-11-14T05:53:00.956Z,98.55
2022-11-14T05:54:00.937Z,98.45
2022-11-14T05:55:00.965Z,98.76
2022-11-14T05:56:00.926Z,98.82
2022-11-14T05:57:00.960Z,99.13
2022-11-14T05:58:00.920Z,98.72
2022-11-14T05:59:00.903Z,99.34
2022-11-14T06:00:00.878Z,99.65
2022-11-14T06:01:00.866Z,99.70
2022-11-14T06:02:00.912Z,99.18
2022-11-14T06:03:00.877Z,99.18
2022-11-14T06:04:00.847Z,99.18
2022-11-14T06:05:00.824Z,98.76
2022-11-14T06:06:00.827Z,99.18
2022-11-14T06:07:00.838Z,98.86
2022-11-14T06:08:00.807Z,98.35
2022-11-14T06:09:00.888Z,98.20
2022-11-14T06:10:00.768Z,98.30
2022-11-14T06:11:00.768Z,98.41
2022-11-14T06:12:00.750Z,98.68
2022-11-14T06:13:00.749Z,98.57
2022-11-14T06:14:00.717Z,98.68
2022-11-14T06:15:00.752Z,98.78
2022-11-14T06:16:00.699Z,98.99
2022-11-14T06:17:00.687Z,98.94
2022-11-14T06:18:00.680Z,98.32
2022-11-14T06:19:00.665Z,98.21
2022-11-14T06:20:00.692Z,98.42
2022-11-14T06:21:00.660Z,98.58
2022-11-14T06:22:00.635Z,98.69
2022-11-14T06:23:00.618Z,98.90
2022-11-14T06:24:00.608Z,98.79
2022-11-14T06:25:00.601Z,98.58
2022-11-14T06:26:00.622Z,98.58
2022-11-14T06:27:00.570Z,98.74
2022-11-14T06:28:00.560Z,98.43
2022-11-14T06:29:00.549Z,98.43
2022-11-14T06:30:00.559Z,98.64
2022-11-14T06:31:00.523Z,98.33
2022-11-14T06:32:00.539Z,98.22
2022-11-14T06:33:00.498Z,98.43
2022-11-14T06:34:00.499Z,98.85
2022-11-14T06:35:00.475Z,98.33
2022-11-14T06:36:00.484Z,98.43
2022-11-14T06:37:00.467Z,98.39
2022-11-14T06:38:00.500Z,98.39
2022-11-14T06:39:00.427Z,98.39
2022-11-14T06:40:00.429Z,98.70
2022-11-14T06:41:00.414Z,98.60
2022-11-14T06:42:00.418Z,98.60
2022-11-14T06:43:00.683Z,98.91
2022-11-14T06:44:00.736Z,98.33
2022-11-14T06:45:00.360Z,97.77
2022-11-14T06:46:00.352Z,98.13
2022-11-14T06:47:00.351Z,98.13
2022-11-14T06:48:00.330Z,98.24
2022-11-14T06:49:00.370Z,98.55
2022-11-14T06:50:00.314Z,98.82
2022-11-14T06:51:00.299Z,98.61
2022-11-14T06:52:00.290Z,99.13
2022-11-14T06:53:00.270Z,98.61
2022-11-14T06:54:00.280Z,98.86
2022-11-14T06:55:00.331Z,98.65
2022-11-14T06:56:00.262Z,98.55
2022-11-14T06:57:00.222Z,97.87
2022-11-14T06:58:00.213Z,97.83
2022-11-14T06:59:00.203Z,97.41
2022-11-14T07:00:00.192Z,97.88
2022-11-14T07:01:00.216Z,97.78
2022-11-14T07:02:00.192Z,97.67
2022-11-14T07:03:00.218Z,97.57
2022-11-14T07:04:00.174Z,97.67
2022-11-14T07:05:00.142Z,97.99
2022-11-14T07:06:00.142Z,97.94
2022-11-14T07:07:00.246Z,97.94
2022-11-14T07:08:01.052Z,98.05
2022-11-14T07:09:00.128Z,98.25
2022-11-14T07:10:00.097Z,97.59
2022-11-14T07:11:00.069Z,98.10
2022-11-14T07:12:00.079Z,97.89
2022-11-14T07:13:00.079Z,98.00
2022-11-14T07:14:00.045Z,97.85
2022-11-14T07:15:00.031Z,98.16
2022-11-14T07:16:00.013Z,98.16
2022-11-14T07:17:00.005Z,97.96
2022-11-14T07:18:00.022Z,97.85
2022-11-14T07:18:59.978Z,97.75
2022-11-14T07:19:59.963Z,98.01
2022-11-14T07:20:59.953Z,98.37
2022-11-14T07:21:59.944Z,97.85
2022-11-14T07:22:59.942Z,97.33
2022-11-14T07:23:59.964Z,97.44
2022-11-14T07:24:59.939Z,97.19
2022-11-14T07:25:59.902Z,97.50
2022-11-14T07:26:59.887Z,96.67
2022-11-14T07:27:59.874Z,96.82
2022-11-14T07:29:02.418Z,96.41
2022-11-14T07:29:59.867Z,96.09
2022-11-14T07:30:59.856Z,96.67
2022-11-14T07:31:59.845Z,96.05
2022-11-14T07:32:59.813Z,96.83
2022-11-14T07:33:59.823Z,96.99
2022-11-14T07:35:02.319Z,97.14
2022-11-14T07:35:59.808Z,96.42
2022-11-14T07:36:59.786Z,97.04
2022-11-14T07:37:59.764Z,96.56
2022-11-14T07:38:59.745Z,96.83
2022-11-14T07:39:59.743Z,96.42
2022-11-14T07:41:00.262Z,96.52
2022-11-14T07:41:59.717Z,97.25
2022-11-14T07:42:59.735Z,96.11
2022-11-14T07:43:59.753Z,96.01
2022-11-14T07:44:59.715Z,96.69
2022-11-14T07:45:59.707Z,96.95
2022-11-14T07:46:59.760Z,96.95
2022-11-14T07:47:59.704Z,97.67
2022-11-14T07:48:59.696Z,97.31
2022-11-14T07:49:59.635Z,97.52
2022-11-14T07:50:59.621Z,97.63
2022-11-14T07:51:59.615Z,97.63
2022-11-14T07:52:59.615Z,97.63
2022-11-14T07:53:59.575Z,97.68
2022-11-14T07:54:59.557Z,97.58
2022-11-14T07:55:59.544Z,97.38
2022-11-14T07:56:59.560Z,97.68
2022-11-14T07:57:59.526Z,97.38
2022-11-14T07:58:59.570Z,97.58
2022-11-14T07:59:59.509Z,97.48
2022-11-14T08:00:59.531Z,97.33
2022-11-14T08:01:59.483Z,97.06
2022-11-14T08:02:59.513Z,97.17
2022-11-14T08:03:59.456Z,96.96
2022-11-14T08:04:59.493Z,96.86
2022-11-14T08:05:59.427Z,96.71
2022-11-14T08:06:59.484Z,97.02
2022-11-14T08:07:59.406Z,96.61
2022-11-14T08:08:59.411Z,96.41
2022-11-14T08:09:59.384Z,96.09
2022-11-14T08:10:59.450Z,96.61
2022-11-14T08:11:59.357Z,96.20
2022-11-14T08:13:11.044Z,96.46
2022-11-14T08:14:00.337Z,96.77
2022-11-14T08:14:59.401Z,96.67
2022-11-14T08:15:59.347Z,96.97
2022-11-14T08:16:59.313Z,97.03
2022-11-14T08:17:59.313Z,97.08
2022-11-14T08:18:59.311Z,96.67
2022-11-14T08:19:59.269Z,96.72
2022-11-14T08:20:59.361Z,97.03
2022-11-14T08:21:59.280Z,97.34
2022-11-14T08:22:59.268Z,96.88
2022-11-14T08:23:59.234Z,97.28
2022-11-14T08:24:59.257Z,96.88
2022-11-14T08:25:59.211Z,96.67
2022-11-14T08:26:59.198Z,96.31
2022-11-14T08:27:59.208Z,97.34
2022-11-14T08:28:59.191Z,96.83
2022-11-14T08:29:59.203Z,97.30
2022-11-14T08:30:59.155Z,97.19
2022-11-14T08:32:00.060Z,97.61
2022-11-14T08:32:59.129Z,97.14
2022-11-14T08:33:59.130Z,97.30
2022-11-14T08:34:59.101Z,97.65
2022-11-14T08:35:59.144Z,96.89
2022-11-14T08:36:59.084Z,97.09
2022-11-14T08:37:59.061Z,97.50
2022-11-14T08:39:02.123Z,96.99
2022-11-14T08:39:59.044Z,97.25
2022-11-14T08:40:59.075Z,97.56
2022-11-14T08:41:59.034Z,97.66
2022-11-14T08:42:59.001Z,97.87
2022-11-14T08:43:58.992Z,97.72
2022-11-14T08:44:59.031Z,97.72
2022-11-14T08:46:01.641Z,97.82
2022-11-14T08:46:58.961Z,97.82
2022-11-14T08:47:58.965Z,97.72
2022-11-14T08:48:58.941Z,97.62
2022-11-14T08:49:58.919Z,97.52
2022-11-14T08:50:58.972Z,98.03
2022-11-14T08:51:58.929Z,97.57
2022-11-14T08:52:58.901Z,98.08
2022-11-14T08:53:58.883Z,97.99
2022-11-14T08:54:58.882Z,97.82
2022-11-14T08:55:58.860Z,97.52
2022-11-14T08:56:58.860Z,97.57
2022-11-14T08:57:58.841Z,97.88
2022-11-14T08:58:58.841Z,98.08
2022-11-14T08:59:58.812Z,97.83
2022-11-14T09:00:58.800Z,98.04
2022-11-14T09:01:58.843Z,98.14
2022-11-14T09:02:58.897Z,98.14
2022-11-14T09:04:00.170Z,98.04
2022-11-14T09:04:58.841Z,98.10
2022-11-14T09:05:58.762Z,98.30
2022-11-14T09:06:58.794Z,98.66
2022-11-14T09:07:58.744Z,97.37
2022-11-14T09:08:58.703Z,97.52
2022-11-14T09:09:58.705Z,98.03
2022-11-14T09:11:04.224Z,97.78
2022-11-14T09:11:59.673Z,97.99
2022-11-14T09:12:58.663Z,97.99
2022-11-14T09:13:58.681Z,98.39
2022-11-14T09:14:58.665Z,97.99
2022-11-14T09:15:58.635Z,97.27
2022-11-14T09:17:03.138Z,97.16
2022-11-14T09:17:59.613Z,97.63
2022-11-14T09:18:58.641Z,97.94
2022-11-14T09:19:58.595Z,98.45
2022-11-14T09:20:58.564Z,97.99
2022-11-14T09:21:58.565Z,97.67
2022-11-14T09:22:58.560Z,97.47
2022-11-14T09:24:01.669Z,97.27
2022-11-14T09:24:58.545Z,97.57
2022-11-14T09:25:58.517Z,97.88
2022-11-14T09:26:58.532Z,97.83
2022-11-14T09:27:58.509Z,97.73
2022-11-14T09:28:58.497Z,97.78
2022-11-14T09:29:58.501Z,97.73
2022-11-14T09:30:58.477Z,97.69
2022-11-14T09:31:58.436Z,97.79
2022-11-14T09:32:58.435Z,98.10
2022-11-14T09:33:58.436Z,97.79
2022-11-14T09:34:58.405Z,98.10
2022-11-14T09:35:58.444Z,98.10
2022-11-14T09:36:58.396Z,97.99
2022-11-14T09:37:58.424Z,98.61
2022-11-14T09:38:58.356Z,97.79
2022-11-14T09:39:58.358Z,98.10
2022-11-14T09:40:58.361Z,97.89
2022-11-14T09:41:58.354Z,97.54
2022-11-14T09:42:58.308Z,97.95
2022-11-14T09:43:58.308Z,98.05
2022-11-14T09:44:58.308Z,98.00
2022-11-14T09:45:58.306Z,97.64
2022-11-14T09:46:58.316Z,98.21
2022-11-14T09:47:58.256Z,98.11
2022-11-14T09:48:58.310Z,98.11
2022-11-14T09:49:58.249Z,98.21
2022-11-14T09:50:58.229Z,98.11
2022-11-14T09:51:58.258Z,98.11
2022-11-14T09:52:58.303Z,98.21
2022-11-14T09:53:58.246Z,97.86
2022-11-14T09:54:58.241Z,98.27
2022-11-14T09:55:58.160Z,98.37
2022-11-14T09:56:58.149Z,98.05
2022-11-14T09:57:58.140Z,97.03
2022-11-14T09:58:58.151Z,96.91
2022-11-14T09:59:58.127Z,96.56
2022-11-14T10:00:58.110Z,96.77
2022-11-14T10:01:58.137Z,97.80
2022-11-14T10:02:58.101Z,97.60
2022-11-14T10:03:58.088Z,97.49
2022-11-14T10:04:58.060Z,98.11
2022-11-14T10:05:58.055Z,97.70
2022-11-14T10:06:58.085Z,97.80
2022-11-14T10:07:58.029Z,97.54
2022-11-14T10:08:58.032Z,96.25
2022-11-14T10:09:58.020Z,96.92
2022-11-14T10:10:57.991Z,96.92
2022-11-14T10:11:57.980Z,96.57
2022-11-14T10:12:57.961Z,97.80
2022-11-14T10:13:57.950Z,97.60
2022-11-14T10:14:57.939Z,97.75
2022-11-14T10:15:57.950Z,97.03
2022-11-14T10:16:57.944Z,96.82
2022-11-14T10:17:57.925Z,97.29
2022-11-14T10:18:57.899Z,97.49
2022-11-14T10:19:57.883Z,97.49
2022-11-14T10:20:57.972Z,97.65
2022-11-14T10:21:57.863Z,97.49
2022-11-14T10:23:01.411Z,97.54
2022-11-14T10:23:57.833Z,97.80
2022-11-14T10:24:57.837Z,97.29
2022-11-14T10:25:57.825Z,98.37
2022-11-14T10:26:57.832Z,98.33
2022-11-14T10:28:03.855Z,98.63
2022-11-14T10:28:58.804Z,98.43
2022-11-14T10:29:57.774Z,98.28
2022-11-14T10:30:57.764Z,98.43
2022-11-14T10:31:57.762Z,98.43
2022-11-14T10:32:57.754Z,98.22
2022-11-14T10:33:57.726Z,98.22
2022-11-14T10:34:57.720Z,98.63
2022-11-14T10:35:57.738Z,98.28
2022-11-14T10:36:57.683Z,98.49
2022-11-14T10:37:57.713Z,98.74
2022-11-14T10:38:57.665Z,98.60
2022-11-14T10:39:57.655Z,98.85
2022-11-14T10:40:57.653Z,98.80
2022-11-14T10:42:01.006Z,98.90
2022-11-14T10:42:58.649Z,98.80
2022-11-14T10:43:57.661Z,98.90
2022-11-14T10:44:57.606Z,98.90
2022-11-14T10:45:57.584Z,98.75
2022-11-14T10:46:57.583Z,98.65
2022-11-14T10:47:57.567Z,98.90
2022-11-14T10:49:00.090Z,98.95
2022-11-14T10:49:57.535Z,99.05
2022-11-14T10:50:57.538Z,98.74
2022-11-14T10:51:57.517Z,99.15
2022-11-14T10:52:57.506Z,98.74
2022-11-14T10:53:57.496Z,98.39
2022-11-14T10:54:57.546Z,99.01
2022-11-14T10:56:04.021Z,98.90
2022-11-14T10:56:58.808Z,98.80
2022-11-14T10:57:57.454Z,98.60
2022-11-14T10:58:57.453Z,98.70
2022-11-14T10:59:57.428Z,99.11
2022-11-14T11:00:57.450Z,98.85
2022-11-14T11:01:57.402Z,98.85
2022-11-14T11:02:57.389Z,98.90
2022-11-14T11:03:57.430Z,99.11
2022-11-14T11:04:57.368Z,98.70
2022-11-14T11:05:57.360Z,98.96
2022-11-14T11:06:57.396Z,98.75
2022-11-14T11:08:02.843Z,98.71
2022-11-14T11:08:58.381Z,98.71
2022-11-14T11:09:57.309Z,99.02
2022-11-14T11:10:57.306Z,98.86
2022-11-14T11:11:57.312Z,98.86
2022-11-14T11:12:57.386Z,98.66
2022-11-14T11:13:57.260Z,98.66
2022-11-14T11:14:57.253Z,98.66
2022-11-14T11:15:57.253Z,98.61
2022-11-14T11:16:57.232Z,98.72
2022-11-14T11:17:57.251Z,98.82
2022-11-14T11:18:57.214Z,98.77
2022-11-14T11:19:57.191Z,98.71
2022-11-14T11:20:57.201Z,98.71
2022-11-14T11:21:57.172Z,98.81
2022-11-14T11:22:59.754Z,98.77
2022-11-14T11:23:58.175Z,98.77
2022-11-14T11:24:57.142Z,98.72
2022-11-14T11:25:57.142Z,98.72
2022-11-14T11:26:57.112Z,98.61
2022-11-14T11:27:57.100Z,98.57
2022-11-14T11:28:57.089Z,98.27
2022-11-14T11:29:57.092Z,97.91
2022-11-14T11:30:57.168Z,98.11
2022-11-14T11:31:57.055Z,98.15
2022-11-14T11:32:57.052Z,98.41
2022-11-14T11:33:57.033Z,98.27
2022-11-14T11:34:57.062Z,98.31
2022-11-14T11:35:57.001Z,98.57
2022-11-14T11:36:56.992Z,98.16
2022-11-14T11:37:56.984Z,98.02
2022-11-14T11:38:56.971Z,97.91
2022-11-14T11:39:56.966Z,97.77
2022-11-14T11:40:56.973Z,97.56
2022-11-14T11:42:10.248Z,97.61
2022-11-14T11:43:37.895Z,98.06
2022-11-14T11:43:58.333Z,98.22
2022-11-14T11:44:56.905Z,97.77
2022-11-14T11:45:56.883Z,97.05
2022-11-14T11:46:56.922Z,96.84
2022-11-14T11:47:56.865Z,96.70
2022-11-14T11:48:56.865Z,96.70
2022-11-14T11:49:56.845Z,96.84
2022-11-14T11:50:56.824Z,97.16
2022-11-14T11:51:56.814Z,97.00
2022-11-14T11:52:56.826Z,96.35
2022-11-14T11:53:56.801Z,96.14
2022-11-14T11:54:56.796Z,97.66
2022-11-14T11:55:56.776Z,97.62
2022-11-14T11:56:56.755Z,96.86
2022-11-14T11:57:56.757Z,96.00
2022-11-14T11:58:56.786Z,95.69
2022-11-14T11:59:56.716Z,94.98
2022-11-14T12:00:56.742Z,95.08
2022-11-14T12:01:56.739Z,95.34
2022-11-14T12:02:56.717Z,95.29
2022-11-14T12:03:56.731Z,95.08
2022-11-14T12:04:56.695Z,94.68
2022-11-14T12:05:56.675Z,94.88
2022-11-14T12:06:56.701Z,94.47
2022-11-14T12:07:56.638Z,93.90
2022-11-14T12:08:56.619Z,95.01
2022-11-14T12:10:10.286Z,96.64
2022-11-14T12:10:57.611Z,96.75
2022-11-14T12:11:56.588Z,96.89
2022-11-14T12:12:56.584Z,97.36
2022-11-14T12:13:56.583Z,96.80
2022-11-14T12:14:56.558Z,95.64
2022-11-14T12:15:56.591Z,95.74
2022-11-14T12:16:56.520Z,96.45
2022-11-14T12:17:56.525Z,95.49
2022-11-14T12:18:56.507Z,94.93
2022-11-14T12:19:56.512Z,94.48
2022-11-14T12:20:56.489Z,93.06
2022-11-14T12:21:58.890Z,92.25
2022-11-14T12:22:56.466Z,92.04
2022-11-14T12:23:56.458Z,92.60
2022-11-14T12:24:56.438Z,94.12
2022-11-14T12:25:56.432Z,93.51
2022-11-14T12:26:56.402Z,93.37
2022-11-14T12:27:56.481Z,93.16
2022-11-14T12:28:56.396Z,92.70
2022-11-14T12:29:56.380Z,94.11
2022-11-14T12:30:56.362Z,95.03
2022-11-14T12:31:56.360Z,95.59
2022-11-14T12:32:56.343Z,94.02
2022-11-14T12:33:56.363Z,93.82
2022-11-14T12:34:56.402Z,94.68
2022-11-14T12:35:56.303Z,95.59
2022-11-14T12:36:56.332Z,95.34
2022-11-14T12:37:56.393Z,94.73
2022-11-14T12:38:56.324Z,94.37
2022-11-14T12:39:56.266Z,95.18
2022-11-14T12:40:56.270Z,94.78
2022-11-14T12:41:56.242Z,94.88
2022-11-14T12:42:56.233Z,94.82
2022-11-14T12:43:56.243Z,95.29
2022-11-14T12:44:56.224Z,95.69
2022-11-14T12:45:56.193Z,94.78
2022-11-14T12:46:56.216Z,94.53
2022-11-14T12:47:56.164Z,93.51
2022-11-14T12:48:56.155Z,93.62
2022-11-14T12:49:56.174Z,94.79
2022-11-14T12:50:56.134Z,93.12
2022-11-14T12:51:56.115Z,92.00